Time;durP1;ratioP1;P1;durP2;ratioP2;P2;SDS_P1;SDS_P2;PMS_P1;PMS_P2;Temp;Humidity;BMP_temperature;BMP_pressure;BME280_temperature;BME280_humidity;BME280_pressure;Samples;Min_cycle;Max_cycle;Signal;HPM_P1;HPM_P2
2023/12/15 00:00:18;;;;;;;5.95;4.30;;;6.70;99.90;;;;;;5177600;28;20029;-35
2023/12/15 00:02:51;;;;;;;5.63;4.32;;;6.70;99.90;;;;;;5192541;28;20060;-35
2023/12/15 00:05:25;;;;;;;8.73;5.37;;;6.70;99.90;;;;;;5200568;28;20032;-35
2023/12/15 00:07:59;;;;;;;8.32;5.50;;;6.60;99.90;;;;;;5190180;28;20271;-35
2023/12/15 00:10:31;;;;;;;;;;;6.60;1.00;;;;;;5195970;28;20329;-34
2023/12/15 00:13:02;;;;;;;6.40;4.90;;;6.60;1.00;;;;;;5193701;28;20080;-35
2023/12/15 00:15:35;;;;;;;7.53;4.65;;;6.50;1.00;;;;;;5184621;28;20044;-39
2023/12/15 00:18:07;;;;;;;9.55;5.03;;;6.50;1.00;;;;;;5194255;28;20033;-34
2023/12/15 00:20:38;;;;;;;7.72;5.03;;;6.50;1.00;;;;;;5196566;28;20182;-34
2023/12/15 00:23:09;;;;;;;9.70;5.72;;;6.50;1.00;;;;;;5194947;28;20345;-34
2023/12/15 00:25:42;;;;;;;6.72;4.80;;;6.50;99.90;;;;;;5177761;28;20029;-34
2023/12/15 00:28:16;;;;;;;7.47;4.63;;;6.50;99.90;;;;;;5186350;28;20052;-35
2023/12/15 00:30:47;;;;;;;5.40;4.53;;;6.50;1.00;;;;;;5193318;28;20082;-35
2023/12/15 00:33:23;;;;;;;7.07;4.25;;;6.50;1.00;;;;;;5193588;28;20041;-35
2023/12/15 00:35:54;;;;;;;7.40;4.60;;;6.50;1.00;;;;;;5190305;28;20384;-35
2023/12/15 00:38:31;;;;;;;5.63;4.03;;;6.50;1.00;;;;;;5196136;28;20026;-35
2023/12/15 00:41:04;;;;;;;4.45;3.30;;;6.50;99.90;;;;;;5194994;28;20044;-35
2023/12/15 00:43:41;;;;;;;3.28;2.80;;;6.50;77.90;;;;;;5191008;28;20448;-35
2023/12/15 00:46:14;;;;;;;3.95;2.80;;;6.40;1.00;;;;;;5184337;28;20029;-34
2023/12/15 00:48:47;;;;;;;3.65;2.70;;;6.40;1.00;;;;;;5185454;28;20040;-34
2023/12/15 00:51:21;;;;;;;4.72;2.67;;;6.40;1.00;;;;;;5187767;28;20262;-34
2023/12/15 00:53:57;;;;;;;3.15;2.30;;;6.40;1.00;;;;;;5187307;28;20445;-34
2023/12/15 00:56:30;;;;;;;2.10;1.85;;;6.50;1.00;;;;;;5185256;28;20079;-34
2023/12/15 00:59:05;;;;;;;3.28;2.70;;;6.50;1.00;;;;;;5184323;28;20044;-35
2023/12/15 01:01:38;;;;;;;1.48;1.38;;;6.50;1.00;;;;;;5189449;28;20242;-34
2023/12/15 01:04:10;;;;;;;3.08;2.10;;;6.50;1.00;;;;;;5196286;28;20029;-34
2023/12/15 01:06:41;;;;;;;2.63;1.98;;;6.50;99.90;;;;;;5177894;28;20399;-35
2023/12/15 01:09:12;;;;;;;1.90;1.70;;;6.50;99.90;;;;;;5188373;28;20045;-35
2023/12/15 01:11:44;;;;;;;2.20;1.80;;;6.50;99.90;;;;;;5193378;28;20037;-35
2023/12/15 01:14:17;;;;;;;2.55;2.00;;;6.50;99.90;;;;;;5184656;28;20346;-37
2023/12/15 01:16:52;;;;;;;2.90;2.05;;;6.50;99.90;;;;;;5188876;28;20048;-34
2023/12/15 01:19:23;;;;;;;2.85;2.05;;;6.50;1.00;;;;;;5194263;28;20059;-34
2023/12/15 01:21:54;;;;;;;3.65;2.28;;;6.50;99.90;;;;;;5189554;28;20036;-34
2023/12/15 01:24:28;;;;;;;2.67;2.05;;;6.50;1.00;;;;;;5176046;28;20041;-34
2023/12/15 01:26:59;;;;;;;3.85;3.03;;;6.50;1.00;;;;;;5178381;28;20387;-34
2023/12/15 01:29:35;;;;;;;2.95;2.03;;;6.50;99.90;;;;;;5192061;28;20041;-34
2023/12/15 01:32:09;;;;;;;2.50;2.22;;;6.40;99.90;;;;;;5196972;28;20036;-34
2023/12/15 01:34:42;;;;;;;4.82;2.72;;;6.40;99.90;;;;;;5193279;28;20021;-34
2023/12/15 01:37:13;;;;;;;2.63;2.22;;;6.40;1.00;;;;;;5194653;28;20049;-34
2023/12/15 01:39:47;;;;;;;4.88;2.75;;;6.40;99.90;;;;;;5200484;28;20040;-35
2023/12/15 01:42:21;;;;;;;4.68;2.72;;;6.30;99.90;;;;;;5198513;28;20314;-35
2023/12/15 01:44:53;;;;;;;2.55;2.28;;;6.30;99.90;;;;;;5184128;28;20337;-35
2023/12/15 01:47:27;;;;;;;5.75;3.08;;;6.20;99.90;;;;;;5185557;28;20022;-35
2023/12/15 01:49:58;;;;;;;;;;;6.20;99.90;;;;;;5184919;28;20295;-35
2023/12/15 01:52:29;;;;;;;4.03;3.20;;;6.20;99.90;;;;;;5199499;28;19908;-34
2023/12/15 01:55:01;;;;;;;4.07;3.33;;;6.20;99.90;;;;;;5189593;28;20038;-34
2023/12/15 01:57:34;;;;;;;3.30;2.75;;;6.20;99.90;;;;;;5189392;28;20039;-34
2023/12/15 02:00:12;;;;;;;4.75;2.75;;;6.10;99.90;;;;;;5196255;28;20364;-34
2023/12/15 02:02:45;;;;;;;3.90;3.15;;;6.10;99.90;;;;;;5197128;28;20342;-34
2023/12/15 02:05:16;;;;;;;6.23;2.97;;;6.10;99.90;;;;;;5193267;28;20418;-35
2023/12/15 02:07:51;;;;;;;4.25;3.53;;;6.10;99.90;;;;;;5192600;28;20263;-35
2023/12/15 02:10:24;;;;;;;;;;;6.10;99.90;;;;;;5199536;28;20217;-33
2023/12/15 02:12:59;;;;;;;2.85;2.33;;;6.10;99.90;;;;;;5198878;28;20151;-38
2023/12/15 02:15:33;;;;;;;5.63;3.30;;;6.10;99.90;;;;;;5165417;28;20120;-33
2023/12/15 02:18:04;;;;;;;;;;;6.10;99.90;;;;;;5187416;28;20056;-34
2023/12/15 02:20:36;;;;;;;4.07;2.88;;;6.10;99.90;;;;;;5197922;28;20213;-33
2023/12/15 02:23:07;;;;;;;3.00;2.65;;;6.10;99.90;;;;;;5189507;28;20150;-34
2023/12/15 02:25:41;;;;;;;2.97;2.50;;;6.10;91.30;;;;;;5186148;28;20040;-34
2023/12/15 02:28:12;;;;;;;4.70;3.05;;;6.10;64.70;;;;;;5197830;28;20025;-34
2023/12/15 02:30:43;;;;;;;3.58;2.90;;;6.10;57.70;;;;;;5194836;28;20226;-35
2023/12/15 02:33:14;;;;;;;3.42;2.90;;;6.10;66.80;;;;;;5185511;28;20026;-33
2023/12/15 02:35:50;;;;;;;4.90;3.30;;;6.10;1.00;;;;;;5185314;28;20314;-33
2023/12/15 02:38:21;;;;;;;3.42;2.67;;;6.10;1.00;;;;;;5185513;28;20041;-34
2023/12/15 02:40:52;;;;;;;4.28;3.03;;;6.10;1.00;;;;;;5180759;28;20195;-34
2023/12/15 02:43:26;;;;;;;5.00;3.15;;;6.10;1.00;;;;;;5193903;28;20053;-34
2023/12/15 02:45:57;;;;;;;3.80;3.20;;;6.10;1.00;;;;;;5192231;28;20033;-34
2023/12/15 02:48:29;;;;;;;4.88;3.30;;;6.10;1.00;;;;;;5196775;28;20041;-33
2023/12/15 02:51:03;;;;;;;4.45;3.58;;;6.10;1.00;;;;;;5191721;28;20048;-33
2023/12/15 02:53:37;;;;;;;3.53;2.95;;;6.00;1.00;;;;;;5197277;28;20195;-33
2023/12/15 02:56:09;;;;;;;4.63;3.40;;;6.00;1.00;;;;;;5190519;28;20354;-34
2023/12/15 02:58:40;;;;;;;4.78;3.20;;;6.00;1.00;;;;;;5183829;28;20037;-33
2023/12/15 03:01:11;;;;;;;4.05;3.03;;;6.00;1.00;;;;;;5190025;28;20029;-34
2023/12/15 03:03:44;;;;;;;2.80;2.17;;;6.00;1.00;;;;;;5190615;28;20037;-34
2023/12/15 03:06:19;;;;;;;4.05;3.33;;;6.00;1.00;;;;;;5197111;28;20059;-34
2023/12/15 03:08:53;;;;;;;3.67;2.63;;;6.00;1.00;;;;;;5187194;28;20034;-33
2023/12/15 03:11:24;;;;;;;3.30;2.20;;;5.90;1.00;;;;;;5196969;28;20028;-34
2023/12/15 03:13:55;;;;;;;2.35;2.10;;;5.90;1.00;;;;;;5195625;28;20149;-33
2023/12/15 03:16:29;;;;;;;4.18;2.80;;;5.90;1.00;;;;;;5189209;28;20377;-32
2023/12/15 03:19:02;;;;;;;2.63;2.35;;;5.90;1.00;;;;;;5187816;28;20044;-33
2023/12/15 03:21:36;;;;;;;3.03;2.33;;;5.90;1.00;;;;;;5198013;28;20176;-34
2023/12/15 03:24:07;;;;;;;3.28;2.22;;;5.80;1.00;;;;;;5190276;28;20029;-33
2023/12/15 03:26:38;;;;;;;3.78;2.60;;;5.80;1.00;;;;;;5180426;28;20215;-33
2023/12/15 03:29:12;;;;;;;3.30;2.22;;;5.80;1.00;;;;;;5191020;28;20559;-32
2023/12/15 03:31:43;;;;;;;2.30;2.10;;;5.80;1.00;;;;;;5193133;28;20025;-34
2023/12/15 03:34:14;;;;;;;2.50;1.60;;;5.70;1.00;;;;;;5189490;28;20059;-33
2023/12/15 03:36:47;;;;;;;2.17;1.80;;;5.70;1.00;;;;;;5189004;28;20056;-37
2023/12/15 03:39:18;;;;;;;3.28;1.90;;;5.70;1.00;;;;;;5196810;28;20029;-34
2023/12/15 03:41:52;;;;;;;2.35;1.50;;;5.60;1.00;;;;;;5196074;28;20301;-32
2023/12/15 03:44:23;;;;;;;1.80;1.60;;;5.60;1.00;;;;;;5188140;28;20040;-34
2023/12/15 03:46:57;;;;;;;1.67;1.40;;;5.60;1.00;;;;;;5173444;28;20041;-33
2023/12/15 03:49:28;;;;;;;1.70;1.60;;;5.60;1.00;;;;;;5177853;28;20036;-33
2023/12/15 03:51:59;;;;;;;2.28;1.70;;;5.50;1.00;;;;;;5176886;28;20278;-33
2023/12/15 03:54:33;;;;;;;1.85;1.33;;;5.50;1.00;;;;;;5179734;28;20048;-34
2023/12/15 03:57:04;;;;;;;2.13;1.52;;;5.50;1.00;;;;;;5195240;28;20040;-34
2023/12/15 03:59:40;;;;;;;2.88;1.30;;;5.50;1.00;;;;;;5185932;28;20048;-34
2023/12/15 04:02:14;;;;;;;2.03;1.73;;;5.50;99.90;;;;;;5180918;28;21186;-35
2023/12/15 04:04:48;;;;;;;1.67;1.58;;;5.50;1.00;;;;;;5197204;28;20036;-35
2023/12/15 04:07:19;;;;;;;1.85;1.40;;;5.40;99.90;;;;;;5196936;28;20018;-35
2023/12/15 04:09:51;;;;;;;1.60;1.40;;;5.40;99.90;;;;;;5198803;28;20209;-33
2023/12/15 04:12:27;;;;;;;2.28;1.90;;;5.40;99.90;;;;;;5193192;28;20039;-34
2023/12/15 04:15:01;;;;;;;1.67;1.50;;;5.40;99.90;;;;;;5197066;28;20378;-33
2023/12/15 04:17:32;;;;;;;2.30;1.92;;;5.40;99.90;;;;;;5195696;28;20028;-34
2023/12/15 04:20:08;;;;;;;2.30;1.95;;;5.30;99.90;;;;;;5197913;28;20033;-33
2023/12/15 04:22:40;;;;;;;4.22;1.88;;;5.30;99.90;;;;;;5187254;28;20042;-33
2023/12/15 04:25:12;;;;;;;3.92;1.85;;;5.40;99.90;;;;;;5177316;28;20036;-34
2023/12/15 04:27:45;;;;;;;2.58;1.90;;;5.40;99.90;;;;;;5186687;28;20202;-33
2023/12/15 04:30:19;;;;;;;2.87;1.80;;;5.40;99.90;;;;;;5195196;28;20033;-33
2023/12/15 04:32:54;;;;;;;4.35;2.17;;;5.40;99.90;;;;;;5184557;28;20025;-34
2023/12/15 04:35:25;;;;;;;2.10;1.70;;;5.40;99.90;;;;;;5180622;28;20045;-36
2023/12/15 04:37:58;;;;;;;3.72;2.40;;;5.40;99.90;;;;;;5196232;28;20041;-34
2023/12/15 04:40:32;;;;;;;2.03;1.83;;;5.30;99.90;;;;;;5196938;28;20033;-34
2023/12/15 04:43:03;;;;;;;2.97;1.98;;;5.30;1.00;;;;;;5182480;28;20041;-34
2023/12/15 04:45:38;;;;;;;3.47;2.15;;;5.30;99.90;;;;;;5188529;28;20035;-34
2023/12/15 04:48:13;;;;;;;3.55;2.22;;;5.30;1.00;;;;;;5195527;28;20021;-34
2023/12/15 04:50:44;;;;;;;3.03;2.45;;;5.30;1.00;;;;;;5197522;28;20226;-34
2023/12/15 04:53:17;;;;;;;2.22;1.98;;;5.30;1.00;;;;;;5194187;28;20492;-33
2023/12/15 04:55:53;;;;;;;3.55;2.35;;;5.30;1.00;;;;;;5197676;28;20043;-33
2023/12/15 04:58:30;;;;;;;3.38;2.45;;;5.30;1.00;;;;;;5183967;28;20042;-34
2023/12/15 05:01:06;;;;;;;5.18;2.42;;;5.30;1.00;;;;;;5185907;28;20048;-35
2023/12/15 05:03:37;;;;;;;3.38;2.40;;;5.30;1.00;;;;;;5182466;28;20059;-33
2023/12/15 05:06:23;;;;;;;4.32;3.05;;;5.30;1.00;;;;;;5200714;28;20033;-33
2023/12/15 05:08:57;;;;;;;2.70;2.20;;;5.30;1.00;;;;;;5189775;28;20293;-33
2023/12/15 05:11:32;;;;;;;4.40;2.72;;;5.30;1.00;;;;;;5195666;28;20041;-35
2023/12/15 05:14:03;;;;;;;2.50;2.30;;;5.20;1.00;;;;;;5184346;28;20030;-32
2023/12/15 05:16:36;;;;;;;3.92;2.67;;;5.30;1.00;;;;;;5177724;28;20333;-33
2023/12/15 05:19:07;;;;;;;3.95;2.95;;;5.20;1.00;;;;;;5199868;28;20345;-43
2023/12/15 05:21:40;;;;;;;4.35;2.78;;;5.20;1.00;;;;;;5199723;28;20031;-34
2023/12/15 05:24:11;;;;;;;3.13;2.40;;;5.30;1.00;;;;;;5206084;28;20029;-34
2023/12/15 05:26:50;;;;;;;3.83;3.03;;;5.20;1.00;;;;;;5201143;28;20290;-34
2023/12/15 05:29:23;;;;;;;3.05;2.60;;;5.20;1.00;;;;;;5182684;28;20033;-34
2023/12/15 05:31:57;;;;;;;2.63;2.43;;;5.30;1.00;;;;;;5184670;28;20352;-33
2023/12/15 05:34:31;;;;;;;4.82;2.75;;;5.30;1.00;;;;;;5194263;28;20254;-34
2023/12/15 05:37:04;;;;;;;4.50;2.67;;;5.20;1.00;;;;;;5189323;28;20227;-34
2023/12/15 05:39:38;;;;;;;4.35;2.67;;;5.20;1.00;;;;;;5193999;28;20045;-34
2023/12/15 05:42:12;;;;;;;3.55;2.80;;;5.20;1.00;;;;;;5188886;28;20053;-34
2023/12/15 05:44:43;;;;;;;4.78;3.03;;;5.20;1.00;;;;;;5196984;28;20034;-34
2023/12/15 05:47:15;;;;;;;4.50;3.22;;;5.20;1.00;;;;;;5199103;28;20045;-33
2023/12/15 05:49:48;;;;;;;4.20;2.80;;;5.20;1.00;;;;;;5182038;28;20025;-34
2023/12/15 05:52:22;;;;;;;4.03;3.23;;;5.20;1.00;;;;;;5175003;28;20198;-34
2023/12/15 05:54:55;;;;;;;4.82;2.97;;;5.20;1.00;;;;;;5191921;28;20463;-34
2023/12/15 05:57:29;;;;;;;4.90;3.55;;;5.20;1.00;;;;;;5190057;28;20037;-34
2023/12/15 06:00:02;;;;;;;5.88;3.47;;;5.20;1.00;;;;;;5191461;28;20337;-34
2023/12/15 06:02:36;;;;;;;5.53;3.67;;;5.20;1.00;;;;;;5195326;28;20041;-34
2023/12/15 06:05:07;;;;;;;7.90;3.65;;;5.20;1.00;;;;;;5198262;28;20052;-34
2023/12/15 06:07:42;;;;;;;6.43;3.83;;;5.20;1.00;;;;;;5192980;28;20059;-36
2023/12/15 06:10:14;;;;;;;5.07;3.58;;;5.20;1.00;;;;;;5180408;28;20044;-34
2023/12/15 06:12:47;;;;;;;6.43;4.22;;;5.20;1.00;;;;;;5187133;28;20340;-34
2023/12/15 06:15:18;;;;;;;7.22;3.72;;;5.20;1.00;;;;;;5193869;28;20029;-34
2023/12/15 06:17:49;;;;;;;5.63;3.92;;;5.20;1.00;;;;;;5197569;28;20034;-34
2023/12/15 06:20:24;;;;;;;5.32;4.13;;;5.20;1.00;;;;;;5191579;28;20050;-34
2023/12/15 06:23:00;;;;;;;6.75;3.67;;;5.10;1.00;;;;;;5189323;28;20096;-34
2023/12/15 06:25:31;;;;;;;7.15;4.15;;;5.10;1.00;;;;;;5194701;28;20051;-34
2023/12/15 06:28:03;;;;;;;7.00;4.57;;;5.00;1.00;;;;;;5198942;28;20385;-32
2023/12/15 06:30:36;;;;;;;7.03;4.63;;;5.00;1.00;;;;;;5195792;28;20037;-32
2023/12/15 06:33:10;;;;;;;6.27;4.77;;;4.90;1.00;;;;;;5181867;28;20044;-32
2023/12/15 06:35:43;;;;;;;5.68;4.38;;;4.80;99.90;;;;;;5183748;28;20029;-32
2023/12/15 06:38:17;;;;;;;6.78;4.78;;;4.80;99.90;;;;;;5177688;28;20040;-31
2023/12/15 06:40:50;;;;;;;6.00;4.60;;;4.70;99.90;;;;;;5195964;28;20034;-32
2023/12/15 06:43:21;;;;;;;7.50;5.27;;;4.70;99.90;;;;;;5191829;28;20075;-32
2023/12/15 06:45:55;;;;;;;8.07;5.43;;;4.70;1.00;;;;;;5194177;28;20056;-32
2023/12/15 06:48:29;;;;;;;8.23;4.57;;;4.70;1.00;;;;;;5199709;28;20025;-32
2023/12/15 06:51:05;;;;;;;6.63;4.20;;;4.70;1.00;;;;;;5206182;28;20021;-32
2023/12/15 06:53:39;;;;;;;6.43;4.18;;;4.70;1.00;;;;;;5182154;28;20238;-32
2023/12/15 06:56:12;;;;;;;8.63;4.45;;;4.70;1.00;;;;;;5200458;28;20029;-32
2023/12/15 06:58:44;;;;;;;5.35;4.03;;;4.70;1.00;;;;;;5196227;28;20326;-31
2023/12/15 07:01:15;;;;;;;6.03;4.03;;;4.70;1.00;;;;;;5175875;28;20021;-31
2023/12/15 07:03:48;;;;;;;5.38;3.83;;;4.70;1.00;;;;;;5191174;28;20225;-32
2023/12/15 07:06:22;;;;;;;6.40;3.97;;;4.80;99.90;;;;;;5191915;28;20360;-32
2023/12/15 07:08:56;;;;;;;5.95;3.80;;;4.70;99.90;;;;;;5199383;28;20322;-32
2023/12/15 07:11:27;;;;;;;5.25;4.00;;;4.70;99.90;;;;;;5180711;28;20029;-32
2023/12/15 07:13:58;;;;;;;6.10;3.97;;;4.70;1.00;;;;;;5187522;28;20033;-32
2023/12/15 07:16:29;;;;;;;5.60;3.67;;;4.70;1.00;;;;;;5189874;28;20044;-31
2023/12/15 07:19:02;;;;;;;4.80;3.35;;;4.60;1.00;;;;;;5197476;28;20055;-32
2023/12/15 07:21:34;;;;;;;3.97;2.97;;;4.50;1.00;;;;;;5176398;28;20261;-33
2023/12/15 07:24:08;;;;;;;5.90;2.78;;;4.40;1.00;;;;;;5190873;28;20040;-33
2023/12/15 07:26:39;;;;;;;;;;;4.30;1.00;;;;;;5190116;28;20054;-33
2023/12/15 07:29:10;;;;;;;5.53;3.60;;;4.30;99.90;;;;;;5197714;28;20033;-33
2023/12/15 07:31:42;;;;;;;5.63;3.45;;;4.30;99.90;;;;;;5168934;28;20045;-35
2023/12/15 07:34:13;;;;;;;4.90;3.42;;;4.30;1.00;;;;;;5182548;28;20032;-33
2023/12/15 07:36:47;;;;;;;4.82;3.50;;;4.30;1.00;;;;;;5181617;28;20021;-32
2023/12/15 07:39:21;;;;;;;5.03;3.30;;;4.30;1.00;;;;;;5198851;28;20025;-33
2023/12/15 07:41:55;;;;;;;5.60;3.40;;;4.30;1.00;;;;;;5192389;28;20055;-34
2023/12/15 07:44:29;;;;;;;4.65;3.28;;;4.40;1.00;;;;;;5185517;28;20033;-34
2023/12/15 07:47:00;;;;;;;5.35;3.50;;;4.40;99.90;;;;;;5195915;28;20202;-33
2023/12/15 07:49:34;;;;;;;4.47;3.35;;;4.40;99.90;;;;;;5193132;28;20130;-33
2023/12/15 07:52:05;;;;;;;4.97;3.03;;;4.40;99.90;;;;;;5192073;28;20029;-33
2023/12/15 07:54:41;;;;;;;5.53;3.70;;;4.40;99.90;;;;;;5183574;28;20187;-33
2023/12/15 07:57:15;;;;;;;5.43;3.10;;;4.40;99.90;;;;;;5191459;28;20342;-33
2023/12/15 07:59:47;;;;;;;5.28;3.30;;;4.40;99.90;;;;;;5187682;28;20266;-33
2023/12/15 08:02:21;;;;;;;6.50;3.72;;;4.40;99.90;;;;;;5181342;28;20261;-33
2023/12/15 08:04:53;;;;;;;6.05;3.10;;;4.50;99.90;;;;;;5179256;28;20048;-33
2023/12/15 08:07:27;;;;;;;5.22;3.58;;;4.50;99.90;;;;;;5187395;28;20037;-32
2023/12/15 08:09:58;;;;;;;6.10;3.45;;;4.50;99.90;;;;;;5200742;28;20206;-32
2023/12/15 08:12:29;;;;;;;4.30;2.80;;;4.50;78.00;;;;;;5192396;28;20041;-32
2023/12/15 08:15:00;;;;;;;4.53;3.28;;;4.50;99.90;;;;;;5183562;28;20045;-33
2023/12/15 08:17:33;;;;;;;5.15;3.35;;;4.50;99.90;;;;;;5194697;28;20044;-33
2023/12/15 08:20:05;;;;;;;3.38;2.33;;;4.50;32.80;;;;;;5197046;28;20038;-34
2023/12/15 08:22:36;;;;;;;4.50;3.10;;;4.40;99.90;;;;;;5181489;28;20131;-34
2023/12/15 08:25:08;;;;;;;4.32;2.90;;;4.40;99.90;;;;;;5195837;28;20036;-32
2023/12/15 08:27:41;;;;;;;4.07;2.80;;;4.40;99.90;;;;;;5195881;28;20032;-32
2023/12/15 08:30:13;;;;;;;5.82;3.15;;;4.40;99.90;;;;;;5191794;28;20043;-34
2023/12/15 08:32:44;;;;;;;4.10;2.80;;;4.40;99.90;;;;;;5179591;28;20033;-33
2023/12/15 08:35:18;;;;;;;4.15;2.80;;;4.40;99.90;;;;;;5192193;28;20037;-33
2023/12/15 08:37:54;;;;;;;3.92;2.78;;;4.40;1.00;;;;;;5197654;28;20029;-34
2023/12/15 08:40:25;;;;;;;2.70;2.22;;;4.40;1.00;;;;;;5195702;28;20037;-33
2023/12/15 08:42:57;;;;;;;3.65;2.75;;;4.30;1.00;;;;;;5189618;28;20052;-42
2023/12/15 08:45:30;;;;;;;3.75;2.88;;;4.30;1.00;;;;;;5193742;28;20237;-42
2023/12/15 08:48:03;;;;;;;3.83;2.87;;;4.30;1.00;;;;;;5179378;28;20029;-42
2023/12/15 08:50:35;;;;;;;3.95;3.20;;;4.20;1.00;;;;;;5180391;28;20269;-42
2023/12/15 08:53:12;;;;;;;4.53;3.10;;;4.20;1.00;;;;;;5191273;28;20033;-42
2023/12/15 08:55:43;;;;;;;7.63;3.88;;;4.20;1.00;;;;;;5181137;28;20032;-42
2023/12/15 08:58:14;;;;;;;5.15;3.72;;;4.20;1.00;;;;;;5191112;28;20032;-42
2023/12/15 09:00:47;;;;;;;4.60;3.60;;;4.20;1.00;;;;;;5193001;28;20357;-42
2023/12/15 09:03:18;;;;;;;6.72;3.20;;;4.10;1.00;;;;;;5183553;28;20206;-41
2023/12/15 09:05:52;;;;;;;7.68;3.83;;;4.10;1.00;;;;;;5195573;28;20029;-42
2023/12/15 09:08:24;;;;;;;5.57;3.67;;;4.00;1.00;;;;;;5181653;28;21222;-42
2023/12/15 09:10:58;;;;;;;6.03;3.75;;;4.00;1.00;;;;;;5191801;28;20029;-42
2023/12/15 09:13:29;;;;;;;4.88;3.53;;;4.00;1.00;;;;;;5187179;28;20368;-42
2023/12/15 09:16:00;;;;;;;7.68;3.63;;;4.00;1.00;;;;;;5193544;28;20038;-42
2023/12/15 09:18:31;;;;;;;6.55;4.18;;;4.00;1.00;;;;;;5180351;28;20371;-42
2023/12/15 09:21:03;;;;;;;7.35;4.28;;;4.00;1.00;;;;;;5182293;28;20064;-42
2023/12/15 09:23:36;;;;;;;5.60;4.07;;;4.00;1.00;;;;;;5182416;28;20045;-42
2023/12/15 09:26:15;;;;;;;6.50;4.10;;;4.00;1.00;;;;;;5195499;28;20040;-42
2023/12/15 09:28:46;;;;;;;5.65;3.50;;;4.00;1.00;;;;;;5207893;28;20405;-41
2023/12/15 09:31:18;;;;;;;7.10;3.80;;;4.00;1.00;;;;;;5185608;28;20063;-42
2023/12/15 09:33:51;;;;;;;19.02;4.40;;;4.00;1.00;;;;;;5181055;28;20025;-42
2023/12/15 09:36:24;;;;;;;6.15;4.38;;;4.00;1.00;;;;;;5180764;28;20033;-42
2023/12/15 09:38:57;;;;;;;6.10;4.13;;;4.10;1.00;;;;;;5186317;28;20029;-42
2023/12/15 09:41:29;;;;;;;8.30;5.13;;;4.10;1.00;;;;;;5200959;28;20219;-42
2023/12/15 09:44:01;;;;;;;7.53;4.70;;;4.10;1.00;;;;;;5190809;28;20052;-42
2023/12/15 09:46:35;;;;;;;6.18;4.55;;;4.10;1.00;;;;;;5185901;28;20018;-42
2023/12/15 09:49:06;;;;;;;10.80;4.38;;;4.20;1.00;;;;;;5161915;28;20034;-42
2023/12/15 09:51:40;;;;;;;6.15;4.47;;;4.10;1.00;;;;;;5182955;28;20486;-42
2023/12/15 09:54:12;;;;;;;7.05;3.95;;;4.10;1.00;;;;;;5192672;28;20030;-44
2023/12/15 09:56:50;;;;;;;10.75;5.35;;;4.10;1.00;;;;;;5184622;28;20063;-41
2023/12/15 09:59:21;;;;;;;6.90;4.45;;;4.10;1.00;;;;;;5192244;28;20288;-41
2023/12/15 10:02:04;;;;;;;8.50;4.45;;;4.10;1.00;;;;;;5193624;28;20033;-41
2023/12/15 10:04:35;;;;;;;5.80;4.05;;;4.10;1.00;;;;;;5183624;28;20033;-41
2023/12/15 10:07:06;;;;;;;5.93;4.15;;;4.10;1.00;;;;;;5185622;28;20556;-41
2023/12/15 10:09:38;;;;;;;6.40;3.90;;;4.20;1.00;;;;;;5198293;28;20232;-41
2023/12/15 10:12:10;;;;;;;6.68;3.67;;;4.10;1.00;;;;;;5195187;28;20026;-42
2023/12/15 10:14:44;;;;;;;6.38;4.50;;;4.10;1.00;;;;;;5194811;28;20033;-42
2023/12/15 10:17:18;;;;;;;6.75;4.57;;;4.10;1.00;;;;;;5185805;28;20237;-42
2023/12/15 10:19:49;;;;;;;9.93;3.90;;;4.10;1.00;;;;;;5199686;28;20345;-41
2023/12/15 10:22:20;;;;;;;3.80;2.78;;;4.10;1.00;;;;;;5182749;28;20059;-42
2023/12/15 10:24:56;;;;;;;5.20;3.08;;;4.00;1.00;;;;;;5181843;28;21494;-42
2023/12/15 10:27:27;;;;;;;4.32;2.83;;;3.90;1.00;;;;;;5193586;28;20048;-42
2023/12/15 10:30:02;;;;;;;4.95;3.17;;;3.80;1.00;;;;;;5196930;28;20025;-41
2023/12/15 10:32:33;;;;;;;3.60;3.08;;;3.80;1.00;;;;;;5194876;28;20272;-41
2023/12/15 10:35:05;;;;;;;3.53;2.75;;;3.80;1.00;;;;;;5199531;28;20026;-41
2023/12/15 10:37:37;;;;;;;4.43;2.92;;;3.80;1.00;;;;;;5187977;28;20235;-42
2023/12/15 10:40:09;;;;;;;5.53;3.42;;;3.80;1.00;;;;;;5192957;28;20026;-43
2023/12/15 10:42:43;;;;;;;6.55;3.83;;;3.80;1.00;;;;;;5198507;28;20040;-42
2023/12/15 10:45:15;;;;;;;;;;;3.70;1.00;;;;;;5178142;28;20025;-41
2023/12/15 10:47:48;;;;;;;9.65;4.50;;;3.80;1.00;;;;;;5182980;28;19936;-41
2023/12/15 10:50:20;;;;;;;5.63;4.47;;;3.70;1.00;;;;;;5181595;28;20953;-41
2023/12/15 10:52:52;;;;;;;7.15;3.92;;;3.70;1.00;;;;;;5192574;28;20033;-45
2023/12/15 10:55:25;;;;;;;8.40;4.53;;;3.70;1.00;;;;;;5193270;28;20045;-41
2023/12/15 10:58:01;;;;;;;8.00;4.53;;;3.70;1.00;;;;;;5193410;28;20057;-42
2023/12/15 11:00:33;;;;;;;6.30;4.35;;;3.80;1.00;;;;;;5192602;28;20026;-44
2023/12/15 11:03:12;;;;;;;8.27;4.55;;;3.80;1.00;;;;;;5187318;28;20030;-43
2023/12/15 11:05:43;;;;;;;6.85;4.60;;;3.80;1.00;;;;;;5194214;28;20022;-43
2023/12/15 11:08:15;;;;;;;12.40;5.80;;;3.80;1.00;;;;;;5184159;28;20036;-44
2023/12/15 11:10:48;;;;;;;8.48;4.70;;;3.80;1.00;;;;;;5190611;28;20513;-43
2023/12/15 11:14:01;;;;;;;5.90;4.43;;;3.80;1.00;;;;;;5188118;28;20199;-42
2023/12/15 11:16:36;;;;;;;6.07;4.03;;;3.70;1.00;;;;;;5188988;28;20052;-47
2023/12/15 11:19:10;;;;;;;6.65;4.25;;;3.70;1.00;;;;;;5202530;28;20062;-45
2023/12/15 11:21:44;;;;;;;6.03;3.90;;;3.60;1.00;;;;;;5228085;28;20044;-45
2023/12/15 11:24:15;;;;;;;5.53;3.60;;;3.60;1.00;;;;;;5219836;28;20047;-45
2023/12/15 11:26:50;;;;;;;7.65;4.07;;;3.60;1.00;;;;;;5224087;28;20039;-46
2023/12/15 11:29:33;;;;;;;6.65;3.95;;;3.60;1.00;;;;;;5210075;28;20236;-46
2023/12/15 11:32:35;;;;;;;5.70;3.65;;;3.50;1.00;;;;;;5218060;28;20344;-46
2023/12/15 11:35:32;;;;;;;5.28;3.45;;;3.50;1.00;;;;;;5228801;28;20252;-50
2023/12/15 11:38:03;;;;;;;4.38;3.63;;;3.50;1.00;;;;;;5209974;28;20033;-47
2023/12/15 11:40:37;;;;;;;6.78;4.10;;;3.50;1.00;;;;;;5217118;28;20032;-43
2023/12/15 11:43:08;;;;;;;6.05;4.20;;;3.60;1.00;;;;;;5210813;28;20036;-44
2023/12/15 11:45:44;;;;;;;5.45;3.70;;;3.60;1.00;;;;;;5210938;28;20578;-45
2023/12/15 11:48:16;;;;;;;6.38;4.18;;;3.70;1.00;;;;;;5203524;28;20033;-44
2023/12/15 11:50:50;;;;;;;5.25;3.42;;;3.70;1.00;;;;;;5225963;28;20040;-42
2023/12/15 11:53:26;;;;;;;5.88;3.80;;;3.60;1.00;;;;;;5221956;28;20031;-42
2023/12/15 11:56:01;;;;;;;4.50;3.58;;;3.60;1.00;;;;;;5207748;28;20033;-42
2023/12/15 11:58:32;;;;;;;6.88;4.13;;;3.50;1.00;;;;;;5186325;28;20056;-42
2023/12/15 12:01:08;;;;;;;5.88;3.90;;;3.70;1.00;;;;;;5178169;28;20060;-43
2023/12/15 12:03:45;;;;;;;5.85;3.92;;;3.70;1.00;;;;;;5179175;28;20033;-44
2023/12/15 12:06:20;;;;;;;5.80;3.50;;;3.60;1.00;;;;;;5213896;28;20047;-43
2023/12/15 12:08:51;;;;;;;4.53;3.35;;;3.70;1.00;;;;;;5212112;28;20037;-42
2023/12/15 12:11:25;;;;;;;5.60;4.15;;;3.60;1.00;;;;;;5227249;28;20036;-42
2023/12/15 12:14:00;;;;;;;4.85;4.03;;;3.60;1.00;;;;;;5216531;28;20237;-43
2023/12/15 12:16:32;;;;;;;7.45;3.60;;;3.60;1.00;;;;;;5221210;28;20260;-42
2023/12/15 12:19:04;;;;;;;10.88;4.20;;;3.60;1.00;;;;;;5214502;28;20312;-44
2023/12/15 12:21:37;;;;;;;5.68;3.80;;;3.70;1.00;;;;;;5223729;28;20067;-42
2023/12/15 12:24:08;;;;;;;7.90;4.10;;;3.70;1.00;;;;;;5231113;28;20029;-42
2023/12/15 12:26:42;;;;;;;7.38;4.55;;;3.70;1.00;;;;;;5216413;28;20382;-42
2023/12/15 12:29:14;;;;;;;7.33;4.57;;;3.70;1.00;;;;;;5217618;28;20231;-42
2023/12/15 12:31:45;;;;;;;9.10;4.32;;;3.70;1.00;;;;;;5230656;28;20288;-41
2023/12/15 12:34:19;;;;;;;7.03;4.13;;;3.70;1.00;;;;;;5218509;28;20039;-43
2023/12/15 12:36:50;;;;;;;9.57;5.45;;;3.70;1.00;;;;;;5210906;28;20045;-44
2023/12/15 12:39:23;;;;;;;4.53;3.30;;;3.60;1.00;;;;;;5191632;28;20029;-43
2023/12/15 12:41:54;;;;;;;5.70;3.97;;;3.60;1.00;;;;;;5185426;28;20292;-45
2023/12/15 12:44:25;;;;;;;7.40;4.80;;;3.60;1.00;;;;;;5178855;28;20040;-42
2023/12/15 12:46:59;;;;;;;11.30;4.68;;;3.60;1.00;;;;;;5200561;28;20051;-42
2023/12/15 12:49:35;;;;;;;9.40;4.45;;;3.60;1.00;;;;;;5213119;28;20037;-42
2023/12/15 12:52:07;;;;;;;6.78;4.32;;;3.70;1.00;;;;;;5206424;28;20237;-42
2023/12/15 12:54:38;;;;;;;8.30;4.47;;;3.80;1.00;;;;;;5180405;28;20307;-42
2023/12/15 12:57:09;;;;;;;7.32;4.43;;;3.70;1.00;;;;;;5195988;28;20356;-43
2023/12/15 12:59:46;;;;;;;7.65;5.05;;;3.80;1.00;;;;;;5187658;28;20455;-42
2023/12/15 13:02:17;;;;;;;6.93;4.88;;;3.90;1.00;;;;;;5208207;28;20207;-42
2023/12/15 13:04:50;;;;;;;9.02;3.97;;;3.90;1.00;;;;;;5218420;28;20348;-42
2023/12/15 13:07:21;;;;;;;9.55;5.30;;;4.00;1.00;;;;;;5188180;28;20055;-42
2023/12/15 13:09:52;;;;;;;7.32;4.72;;;4.00;1.00;;;;;;5195665;28;20041;-41
2023/12/15 13:12:26;;;;;;;8.45;5.20;;;4.00;1.00;;;;;;5212923;28;20044;-41
2023/12/15 13:14:58;;;;;;;8.05;5.32;;;3.90;1.00;;;;;;5222086;28;20025;-41
2023/12/15 13:17:31;;;;;;;7.90;4.72;;;4.00;1.00;;;;;;5204413;28;20142;-41
2023/12/15 13:20:06;;;;;;;9.67;5.93;;;4.10;1.00;;;;;;5201158;28;20061;-43
2023/12/15 13:22:40;;;;;;;9.20;6.05;;;4.20;1.00;;;;;;5202335;28;20203;-41
2023/12/15 13:25:13;;;;;;;;;;;4.40;1.00;;;;;;5210929;28;20033;-41
2023/12/15 13:27:51;;;;;;;11.73;6.35;;;4.90;1.00;;;;;;5211747;28;19967;-42
2023/12/15 13:30:22;;;;;;;8.95;5.82;;;5.10;1.00;;;;;;5212405;28;20033;-42
2023/12/15 13:32:53;;;;;;;9.40;5.80;;;5.10;1.00;;;;;;5216925;28;20040;-43
2023/12/15 13:35:27;;;;;;;8.02;5.20;;;5.10;1.00;;;;;;5232942;28;20235;-42
2023/12/15 13:37:58;;;;;;;5.90;3.78;;;4.80;1.00;;;;;;5207543;28;20055;-42